Hovedside
METAR-TAF:

METAR-TAF

Lufthavner :

Ambato, Ecuador

breddegrad: 01-12-43S, lengdegrad: 078-34-28W, høyde over havet: 2591 m

Gjeldene værobservasjon

Denne rapporten ble laget for 20 minutter siden, klokken 15:00 UTC
Vind 6 kt fra Sør-sørøst
Temperatur 18°C
Luftfuktighet 73%
Trykk 1030 hPa
Sikt 10 km eller mer
Få skyer i en høyde av 2000 ft
Brutte skyer i en høyde av 7000 ft

METAR: SEAM 041500Z 16006KT 9999 FEW020 BKN070 18/13 Q1030

Tid: 10:20 (15:20 UTC)


TAF: fraværende

Værobservasjoner og værvarsel for over 4000 flyplasser (METAR- og TAF-rapporter).

Tilgjengelige stasjoner er representert av de røde og gule prikkene på kartet.

Hold musepekeren over prikken for å se navnet på stasjonen.

Klikk så for å se værobservasjoner og -varsler.

For å forandre kartet kan du klikke på den grønne knappen med svart kryss for å zoome inn, på den grønne knappen med strek for å zoome ut, eller på de grønne pilene for å se tilstøtende kart.


METAR-TAF: